createdAt,value
2018-09-10T00:00:18.246Z,94.84
2018-09-10T00:01:18.244Z,94.07
2018-09-10T00:02:18.242Z,94.26
2018-09-10T00:03:17.986Z,94.07
2018-09-10T00:04:17.988Z,93.98
2018-09-10T00:05:18.247Z,94.84
2018-09-10T00:06:18.245Z,95.22
2018-09-10T00:07:18.240Z,94.64
2018-09-10T00:08:17.979Z,95.12
2018-09-10T00:09:17.986Z,95.12
2018-09-10T00:10:17.980Z,95.03
2018-09-10T00:11:17.979Z,95.03
2018-09-10T00:12:17.972Z,95.6
2018-09-10T00:13:17.979Z,94.93
2018-09-10T00:14:18.245Z,95.7
2018-09-10T00:15:17.984Z,96.47
2018-09-10T00:16:17.970Z,96.18
2018-09-10T00:17:17.976Z,95.79
2018-09-10T00:18:18.223Z,96.8
2018-09-10T00:19:18.229Z,96.7
2018-09-10T00:20:18.223Z,97.28
2018-09-10T00:21:17.975Z,97.28
2018-09-10T00:22:18.223Z,97.38
2018-09-10T00:23:18.234Z,97.47
2018-09-10T00:24:18.237Z,97.38
2018-09-10T00:25:18.223Z,97.38
2018-09-10T00:26:18.225Z,97.38
2018-09-10T00:27:17.973Z,97.56
2018-09-10T00:28:18.235Z,98.14
2018-09-10T00:29:17.962Z,98.86
2018-09-10T00:30:17.955Z,99.24
2018-09-10T00:31:17.980Z,99.62
2018-09-10T00:32:17.963Z,99.99
2018-09-10T00:33:18.207Z,99.52
2018-09-10T00:34:17.960Z,99.72
2018-09-10T00:35:18.261Z,99.52
2018-09-10T00:36:17.952Z,99.72
2018-09-10T00:37:17.963Z,99.72
2018-09-10T00:38:18.210Z,99.72
2018-09-10T00:39:18.214Z,99.99
2018-09-10T00:40:18.209Z,99.99
2018-09-10T00:41:18.208Z,99.99
2018-09-10T00:42:17.950Z,99.99
2018-09-10T00:43:18.200Z,99.99
2018-09-10T00:44:18.198Z,99.99
2018-09-10T00:45:18.193Z,99.99
2018-09-10T00:46:17.932Z,99.99
2018-09-10T00:47:18.197Z,99.99
2018-09-10T00:48:17.930Z,99.99
2018-09-10T00:49:18.200Z,99.96
2018-09-10T00:50:17.928Z,99.99
2018-09-10T00:51:17.926Z,99.99
2018-09-10T00:52:17.945Z,99.99
2018-09-10T00:53:18.180Z,99.99
2018-09-10T00:54:18.190Z,99.99
2018-09-10T00:55:18.177Z,99.99
2018-09-10T00:56:17.921Z,99.99
2018-09-10T00:57:18.178Z,99.99
2018-09-10T00:58:17.924Z,99.99
2018-09-10T00:59:18.183Z,99.91
2018-09-10T01:00:17.915Z,99.99
2018-09-10T01:01:18.172Z,99.99
2018-09-10T01:02:17.911Z,99.99
2018-09-10T01:03:18.181Z,99.99
2018-09-10T01:04:17.911Z,99.99
2018-09-10T01:05:18.164Z,99.99
2018-09-10T01:06:18.162Z,99.99
2018-09-10T01:07:18.172Z,99.99
2018-09-10T01:08:18.171Z,99.99
2018-09-10T01:09:17.907Z,99.99
2018-09-10T01:10:18.162Z,99.99
2018-09-10T01:11:18.158Z,99.99
2018-09-10T01:12:18.158Z,99.99
2018-09-10T01:13:18.174Z,99.99
2018-09-10T01:14:18.158Z,99.99
2018-09-10T01:15:18.147Z,99.99
2018-09-10T01:16:17.895Z,99.99
2018-09-10T01:17:17.899Z,99.99
2018-09-10T01:18:18.161Z,99.99
2018-09-10T01:19:18.159Z,99.99
2018-09-10T01:20:18.153Z,99.99
2018-09-10T01:21:18.156Z,99.99
2018-09-10T01:22:18.156Z,99.99
2018-09-10T01:23:18.135Z,99.99
2018-09-10T01:24:17.897Z,99.99
2018-09-10T01:25:18.139Z,99.99
2018-09-10T01:26:17.888Z,99.99
2018-09-10T01:27:17.869Z,99.99
2018-09-10T01:28:18.132Z,99.99
2018-09-10T01:29:18.143Z,99.99
2018-09-10T01:30:18.132Z,99.99
2018-09-10T01:31:18.146Z,99.99
2018-09-10T01:32:18.149Z,99.99
2018-09-10T01:33:17.870Z,99.99
2018-09-10T01:34:17.869Z,99.99
2018-09-10T01:35:17.868Z,99.99
2018-09-10T01:36:18.133Z,99.99
2018-09-10T01:37:17.867Z,99.99
2018-09-10T01:38:17.859Z,99.99
2018-09-10T01:39:17.855Z,99.99
2018-09-10T01:40:18.115Z,99.99
2018-09-10T01:41:18.105Z,99.99
2018-09-10T01:42:17.855Z,99.99
2018-09-10T01:43:18.113Z,99.99
2018-09-10T01:44:17.858Z,99.99
2018-09-10T01:45:17.860Z,99.99
2018-09-10T01:46:18.109Z,99.99
2018-09-10T01:47:17.872Z,99.99
2018-09-10T01:48:18.094Z,99.99
2018-09-10T01:49:18.105Z,99.99
2018-09-10T01:50:17.841Z,99.99
2018-09-10T01:51:18.093Z,99.99
2018-09-10T01:52:17.872Z,99.99
2018-09-10T01:53:18.165Z,99.99
2018-09-10T01:54:18.092Z,99.99
2018-09-10T01:55:18.085Z,99.99
2018-09-10T01:56:18.084Z,99.99
2018-09-10T01:57:17.844Z,99.99
2018-09-10T01:58:18.096Z,99.99
2018-09-10T01:59:17.856Z,99.99
2018-09-10T02:00:18.076Z,99.99
2018-09-10T02:01:18.074Z,99.99
2018-09-10T02:02:18.083Z,99.99
2018-09-10T02:03:18.077Z,99.99
2018-09-10T02:04:17.840Z,99.99
2018-09-10T02:05:17.820Z,99.99
2018-09-10T02:06:17.820Z,99.99
2018-09-10T02:07:17.834Z,99.99
2018-09-10T02:08:18.059Z,99.99
2018-09-10T02:09:18.073Z,99.99
2018-09-10T02:10:18.057Z,99.99
2018-09-10T02:11:18.055Z,99.99
2018-09-10T02:12:17.812Z,99.99
2018-09-10T02:13:17.810Z,99.99
2018-09-10T02:14:18.072Z,99.99
2018-09-10T02:15:17.800Z,99.99
2018-09-10T02:16:17.790Z,99.99
2018-09-10T02:17:18.181Z,99.99
2018-09-10T02:18:18.053Z,99.99
2018-09-10T02:19:17.800Z,99.99
2018-09-10T02:20:18.167Z,99.99
2018-09-10T02:21:18.034Z,99.99
2018-09-10T02:22:17.788Z,99.99
2018-09-10T02:23:18.031Z,99.99
2018-09-10T02:24:18.036Z,99.99
2018-09-10T02:25:18.021Z,99.99
2018-09-10T02:26:18.041Z,99.99
2018-09-10T02:27:17.808Z,99.99
2018-09-10T02:28:18.022Z,99.99
2018-09-10T02:29:18.179Z,99.99
2018-09-10T02:30:18.014Z,99.99
2018-09-10T02:31:18.017Z,99.99
2018-09-10T02:32:18.013Z,99.99
2018-09-10T02:33:18.016Z,99.99
2018-09-10T02:34:18.033Z,99.99
2018-09-10T02:35:17.750Z,99.99
2018-09-10T02:36:17.779Z,99.99
2018-09-10T02:37:17.996Z,99.99
2018-09-10T02:38:17.763Z,99.99
2018-09-10T02:39:18.004Z,99.99
2018-09-10T02:40:18.039Z,99.99
2018-09-10T02:41:17.985Z,99.99
2018-09-10T02:42:17.979Z,99.99
2018-09-10T02:43:17.979Z,99.99
2018-09-10T02:44:17.726Z,99.99
2018-09-10T02:45:17.981Z,99.99
2018-09-10T02:46:17.982Z,99.99
2018-09-10T02:47:17.752Z,99.99
2018-09-10T02:48:17.975Z,99.99
2018-09-10T02:49:17.979Z,99.99
2018-09-10T02:50:17.973Z,99.99
2018-09-10T02:51:17.726Z,99.99
2018-09-10T02:52:17.969Z,99.99
2018-09-10T02:53:17.708Z,99.99
2018-09-10T02:54:17.700Z,99.99
2018-09-10T02:55:17.763Z,99.99
2018-09-10T02:56:17.947Z,99.99
2018-09-10T02:57:17.953Z,99.99
2018-09-10T02:58:17.944Z,99.99
2018-09-10T02:59:17.956Z,99.99
2018-09-10T03:00:17.955Z,99.99
2018-09-10T03:01:17.933Z,99.99
2018-09-10T03:02:17.947Z,99.99
2018-09-10T03:03:17.676Z,99.99
2018-09-10T03:04:17.926Z,99.99
2018-09-10T03:05:17.923Z,99.99
2018-09-10T03:06:17.930Z,99.99
2018-09-10T03:07:17.932Z,99.99
2018-09-10T03:08:17.921Z,99.99
2018-09-10T03:09:17.913Z,99.99
2018-09-10T03:10:17.647Z,99.99
2018-09-10T03:11:17.647Z,99.99
2018-09-10T03:12:17.907Z,99.99
2018-09-10T03:13:17.896Z,99.99
2018-09-10T03:14:17.641Z,99.99
2018-09-10T03:15:17.640Z,99.99
2018-09-10T03:16:17.629Z,99.99
2018-09-10T03:17:17.619Z,99.99
2018-09-10T03:18:17.880Z,99.99
2018-09-10T03:19:17.883Z,99.99
2018-09-10T03:20:17.873Z,99.99
2018-09-10T03:21:17.615Z,99.99
2018-09-10T03:22:17.878Z,99.99
2018-09-10T03:23:17.879Z,99.99
2018-09-10T03:24:17.955Z,99.99
2018-09-10T03:25:17.864Z,99.99
2018-09-10T03:26:17.874Z,99.99
2018-09-10T03:27:17.856Z,99.99
2018-09-10T03:28:17.862Z,99.99
2018-09-10T03:29:17.852Z,99.99
2018-09-10T03:30:17.854Z,99.99
2018-09-10T03:31:17.600Z,99.99
2018-09-10T03:32:17.909Z,99.99
2018-09-10T03:33:17.576Z,99.99
2018-09-10T03:34:17.572Z,99.99
2018-09-10T03:35:17.565Z,99.99
2018-09-10T03:36:17.842Z,99.99
2018-09-10T03:37:17.561Z,99.99
2018-09-10T03:38:17.564Z,99.99
2018-09-10T03:39:17.829Z,99.99
2018-09-10T03:40:17.831Z,99.99
2018-09-10T03:41:17.820Z,99.99
2018-09-10T03:42:17.814Z,99.99
2018-09-10T03:43:17.849Z,99.99
2018-09-10T03:44:17.550Z,99.99
2018-09-10T03:45:17.818Z,99.99
2018-09-10T03:46:17.822Z,99.99
2018-09-10T03:47:19.036Z,99.99
2018-09-10T03:48:17.829Z,99.99
2018-09-10T03:49:17.530Z,99.99
2018-09-10T03:50:17.790Z,99.99
2018-09-10T03:51:17.528Z,99.99
2018-09-10T03:52:17.542Z,99.99
2018-09-10T03:53:17.790Z,99.99
2018-09-10T03:54:17.538Z,99.99
2018-09-10T03:55:17.765Z,99.99
2018-09-10T03:56:17.503Z,99.99
2018-09-10T03:57:17.762Z,99.99
2018-09-10T03:58:17.500Z,99.99
2018-09-10T03:59:17.495Z,99.99
2018-09-10T04:00:17.763Z,99.99
2018-09-10T04:01:17.735Z,99.99
2018-09-10T04:02:17.750Z,99.99
2018-09-10T04:03:17.739Z,99.99
2018-09-10T04:04:17.483Z,99.99
2018-09-10T04:05:17.739Z,99.99
2018-09-10T04:06:17.721Z,99.99
2018-09-10T04:07:17.724Z,99.99
2018-09-10T04:08:17.717Z,99.99
2018-09-10T04:09:17.477Z,99.99
2018-09-10T04:10:17.455Z,99.99
2018-09-10T04:11:17.705Z,99.99
2018-09-10T04:12:17.457Z,99.99
2018-09-10T04:13:17.443Z,99.99
2018-09-10T04:14:17.716Z,99.99
2018-09-10T04:15:17.439Z,99.99
2018-09-10T04:16:17.691Z,99.99
2018-09-10T04:17:17.857Z,99.99
2018-09-10T04:18:17.688Z,99.99
2018-09-10T04:19:17.432Z,99.99
2018-09-10T04:20:17.427Z,99.99
2018-09-10T04:21:17.698Z,99.99
2018-09-10T04:22:17.677Z,99.99
2018-09-10T04:23:17.691Z,99.99
2018-09-10T04:24:17.679Z,99.99
2018-09-10T04:25:17.666Z,99.99
2018-09-10T04:26:17.684Z,99.99
2018-09-10T04:27:17.660Z,99.99
2018-09-10T04:28:17.655Z,99.99
2018-09-10T04:29:17.395Z,99.99
2018-09-10T04:30:17.406Z,99.99
2018-09-10T04:31:17.649Z,99.99
2018-09-10T04:32:17.649Z,99.99
2018-09-10T04:33:17.712Z,99.99
2018-09-10T04:34:17.640Z,99.99
2018-09-10T04:35:17.635Z,99.99
2018-09-10T04:36:17.745Z,99.99
2018-09-10T04:37:17.632Z,99.99
2018-09-10T04:38:17.371Z,99.99
2018-09-10T04:39:17.369Z,99.99
2018-09-10T04:40:17.620Z,99.99
2018-09-10T04:41:17.617Z,99.99
2018-09-10T04:42:17.392Z,99.99
2018-09-10T04:43:17.355Z,99.99
2018-09-10T04:44:17.349Z,99.99
2018-09-10T04:45:17.601Z,99.99
2018-09-10T04:46:17.599Z,99.99
2018-09-10T04:47:17.603Z,99.99
2018-09-10T04:48:17.592Z,99.99
2018-09-10T04:49:17.334Z,99.99
2018-09-10T04:50:17.589Z,99.99
2018-09-10T04:51:17.321Z,99.99
2018-09-10T04:52:17.589Z,99.99
2018-09-10T04:53:17.315Z,99.99
2018-09-10T04:54:17.571Z,99.99
2018-09-10T04:55:17.337Z,99.99
2018-09-10T04:56:17.559Z,99.99
2018-09-10T04:57:17.302Z,99.99
2018-09-10T04:58:17.386Z,99.99
2018-09-10T04:59:17.302Z,99.99
2018-09-10T05:00:17.555Z,99.99
2018-09-10T05:01:17.299Z,99.99
2018-09-10T05:02:17.550Z,99.99
2018-09-10T05:03:17.283Z,99.99
2018-09-10T05:04:17.284Z,99.99
2018-09-10T05:05:17.540Z,99.99
2018-09-10T05:06:17.541Z,99.99
2018-09-10T05:07:17.277Z,99.99
2018-09-10T05:08:17.263Z,99.99
2018-09-10T05:09:17.263Z,99.99
2018-09-10T05:10:17.526Z,99.99
2018-09-10T05:11:17.263Z,99.99
2018-09-10T05:12:17.268Z,99.99
2018-09-10T05:13:17.509Z,99.99
2018-09-10T05:14:17.505Z,99.99
2018-09-10T05:15:17.243Z,99.99
2018-09-10T05:16:17.241Z,99.99
2018-09-10T05:17:17.233Z,99.99
2018-09-10T05:18:19.084Z,99.99
2018-09-10T05:19:17.490Z,99.99
2018-09-10T05:20:17.483Z,99.99
2018-09-10T05:21:17.511Z,99.99
2018-09-10T05:22:17.482Z,99.99
2018-09-10T05:23:17.512Z,99.99
2018-09-10T05:24:17.224Z,99.99
2018-09-10T05:25:17.220Z,99.99
2018-09-10T05:26:17.475Z,99.52
2018-09-10T05:27:17.454Z,99.1
2018-09-10T05:28:17.745Z,96.89
2018-09-10T05:29:17.452Z,95.7
2018-09-10T05:30:17.457Z,94.36
2018-09-10T05:31:17.200Z,94.26
2018-09-10T05:32:17.248Z,94.45
2018-09-10T05:33:17.443Z,94.45
2018-09-10T05:34:17.441Z,94.26
2018-09-10T05:35:17.443Z,94.84
2018-09-10T05:36:17.451Z,95.36
2018-09-10T05:37:17.215Z,96.03
2018-09-10T05:38:17.428Z,97.08
2018-09-10T05:39:17.430Z,97.37
2018-09-10T05:40:17.455Z,98.04
2018-09-10T05:41:17.437Z,97.95
2018-09-10T05:42:17.434Z,97.28
2018-09-10T05:43:17.428Z,97.66
2018-09-10T05:44:17.162Z,98.14
2018-09-10T05:45:17.420Z,98.24
2018-09-10T05:46:17.421Z,98.57
2018-09-10T05:47:17.429Z,97.99
2018-09-10T05:48:17.150Z,98.04
2018-09-10T05:49:17.410Z,98.33
2018-09-10T05:50:17.412Z,97.08
2018-09-10T05:51:17.401Z,96.89
2018-09-10T05:52:17.393Z,96.99
2018-09-10T05:53:17.542Z,97.99
2018-09-10T05:54:17.404Z,98.09
2018-09-10T05:55:17.399Z,98.09
2018-09-10T05:56:17.402Z,98.09
2018-09-10T05:57:17.384Z,98.85
2018-09-10T05:58:17.387Z,98.85
2018-09-10T05:59:17.414Z,99.04
2018-09-10T06:00:17.384Z,99.43
2018-09-10T06:01:17.395Z,99.14
2018-09-10T06:02:17.116Z,98.24
2018-09-10T06:03:17.366Z,97.99
2018-09-10T06:04:17.369Z,98.09
2018-09-10T06:05:17.370Z,97.85
2018-09-10T06:06:17.370Z,97.47
2018-09-10T06:07:17.114Z,97.28
2018-09-10T06:08:17.349Z,97.08
2018-09-10T06:09:17.353Z,97.56
2018-09-10T06:10:17.103Z,98.04
2018-09-10T06:11:17.090Z,98.52
2018-09-10T06:12:17.348Z,98.52
2018-09-10T06:13:17.339Z,98.04
2018-09-10T06:14:17.083Z,98.24
2018-09-10T06:15:17.335Z,97.28
2018-09-10T06:16:17.106Z,96.22
2018-09-10T06:17:17.338Z,96.61
2018-09-10T06:18:18.134Z,95.75
2018-09-10T06:19:17.066Z,96.22
2018-09-10T06:20:17.327Z,96.13
2018-09-10T06:21:17.348Z,96.42
2018-09-10T06:22:17.315Z,95.56
2018-09-10T06:23:17.078Z,95.46
2018-09-10T06:24:17.086Z,95.07
2018-09-10T06:25:17.321Z,93.93
2018-09-10T06:26:17.303Z,94.31
2018-09-10T06:27:17.392Z,94.36
2018-09-10T06:28:17.041Z,94.89
2018-09-10T06:29:17.294Z,92.35
2018-09-10T06:30:17.078Z,91.87
2018-09-10T06:31:17.295Z,90.67
2018-09-10T06:32:17.034Z,89.62
2018-09-10T06:33:17.294Z,89.14
2018-09-10T06:34:17.515Z,88.99
2018-09-10T06:35:17.285Z,89.18
2018-09-10T06:36:17.026Z,89.62
2018-09-10T06:37:17.229Z,89.81
2018-09-10T06:38:17.278Z,90.29
2018-09-10T06:39:17.308Z,91.44
2018-09-10T06:40:17.020Z,91.05
2018-09-10T06:41:17.283Z,90.48
2018-09-10T06:42:17.277Z,87.08
2018-09-10T06:43:17.273Z,83.95
2018-09-10T06:44:17.272Z,80.68
2018-09-10T06:45:17.275Z,78.32
2018-09-10T06:46:17.014Z,76.15
2018-09-10T06:47:17.019Z,73.98
2018-09-10T06:48:17.279Z,72.64
2018-09-10T06:49:17.024Z,71.81
2018-09-10T06:50:17.275Z,71.81
2018-09-10T06:51:17.015Z,71.23
2018-09-10T06:52:17.285Z,70.3
2018-09-10T06:53:17.302Z,68.7
2018-09-10T06:54:17.275Z,68.32
2018-09-10T06:55:17.025Z,67.65
2018-09-10T06:56:17.276Z,66.91
2018-09-10T06:57:17.285Z,66.04
2018-09-10T06:58:17.296Z,64.43
2018-09-10T06:59:17.287Z,64.34
2018-09-10T07:00:17.362Z,64.76
2018-09-10T07:01:17.039Z,65.11
2018-09-10T07:02:17.079Z,64.82
2018-09-10T07:03:17.045Z,64.66
2018-09-10T07:04:17.311Z,65.2
2018-09-10T07:05:17.059Z,65.98
2018-09-10T07:06:17.337Z,66.62
2018-09-10T07:07:17.074Z,67
2018-09-10T07:08:17.061Z,66.14
2018-09-10T07:09:17.066Z,67.26
2018-09-10T07:10:17.071Z,67.93
2018-09-10T07:11:17.066Z,68.22
2018-09-10T07:12:17.322Z,68.03
2018-09-10T07:13:17.429Z,67.55
2018-09-10T07:14:17.334Z,68.41
2018-09-10T07:15:17.346Z,68.76
2018-09-10T07:16:17.336Z,68.48
2018-09-10T07:17:17.344Z,67.16
2018-09-10T07:18:17.352Z,64.98
2018-09-10T07:19:17.365Z,62.51
2018-09-10T07:20:17.356Z,61.48
2018-09-10T07:21:17.347Z,60.19
2018-09-10T07:22:17.129Z,58.48
2018-09-10T07:23:17.351Z,57.26
2018-09-10T07:24:17.102Z,56.03
2018-09-10T07:25:17.366Z,55.16
2018-09-10T07:26:17.368Z,54.97
2018-09-10T07:27:17.380Z,54.99
2018-09-10T07:28:17.380Z,54.8
2018-09-10T07:29:17.383Z,54.32
2018-09-10T07:30:17.391Z,54.13
2018-09-10T07:31:17.392Z,54.03
2018-09-10T07:32:17.406Z,53.77
2018-09-10T07:33:17.397Z,53.57
2018-09-10T07:34:19.030Z,53.19
2018-09-10T07:35:17.417Z,52.63
2018-09-10T07:36:17.414Z,52.53
2018-09-10T07:37:17.171Z,52.27
2018-09-10T07:38:17.434Z,50.92
2018-09-10T07:39:17.194Z,51.1
2018-09-10T07:40:17.190Z,51.3
2018-09-10T07:41:17.224Z,51.2
2018-09-10T07:42:17.448Z,51.56
2018-09-10T07:43:17.222Z,51.76
2018-09-10T07:44:17.621Z,52.05
2018-09-10T07:45:17.467Z,52.17
2018-09-10T07:46:17.217Z,51.37
2018-09-10T07:47:17.521Z,51.01
2018-09-10T07:48:17.472Z,50.74
2018-09-10T07:49:17.733Z,49.39
2018-09-10T07:50:17.250Z,48.54
2018-09-10T07:51:17.234Z,49.02
2018-09-10T07:52:17.276Z,48.83
2018-09-10T07:53:17.500Z,49.41
2018-09-10T07:54:17.255Z,49.1
2018-09-10T07:55:17.514Z,48.64
2018-09-10T07:56:17.535Z,48.06
2018-09-10T07:57:17.526Z,47.6
2018-09-10T07:58:17.273Z,47.23
2018-09-10T07:59:17.535Z,47.33
2018-09-10T08:00:17.283Z,47.4
2018-09-10T08:01:17.552Z,47.3
2018-09-10T08:02:17.565Z,46.94
2018-09-10T08:03:17.557Z,45.7
2018-09-10T08:04:17.566Z,45.8
2018-09-10T08:05:17.568Z,46.09
2018-09-10T08:06:17.580Z,46.45
2018-09-10T08:07:17.326Z,46.19
2018-09-10T08:08:17.617Z,46.77
2018-09-10T08:09:17.436Z,46.28
2018-09-10T08:10:17.344Z,45.7
2018-09-10T08:11:17.347Z,46.11
2018-09-10T08:12:17.358Z,47.25
2018-09-10T08:13:17.615Z,45.92
2018-09-10T08:14:17.628Z,45.43
2018-09-10T08:15:17.396Z,45.53
2018-09-10T08:16:17.630Z,46.01
2018-09-10T08:17:17.389Z,45.89
2018-09-10T08:18:17.663Z,45.99
2018-09-10T08:19:17.413Z,46.28
2018-09-10T08:20:17.667Z,45.92
2018-09-10T08:21:17.688Z,45.43
2018-09-10T08:22:17.410Z,45.62
2018-09-10T08:23:17.694Z,46.41
2018-09-10T08:24:17.998Z,48.88
2018-09-10T08:25:17.896Z,49.82
2018-09-10T08:26:17.700Z,51.04
2018-09-10T08:27:17.697Z,52.56
2018-09-10T08:28:17.473Z,53.79
2018-09-10T08:29:17.467Z,54.93
2018-09-10T08:30:17.790Z,56.51
2018-09-10T08:31:17.724Z,58.15
2018-09-10T08:32:17.495Z,59.86
2018-09-10T08:33:17.475Z,60.41
2018-09-10T08:34:17.500Z,61.19
2018-09-10T08:35:17.745Z,62.05
2018-09-10T08:36:17.770Z,62.02
2018-09-10T08:37:17.752Z,61.93
2018-09-10T08:38:17.761Z,62.05
2018-09-10T08:39:17.529Z,61.38
2018-09-10T08:40:17.531Z,61.67
2018-09-10T08:41:17.771Z,61.96
2018-09-10T08:42:17.781Z,62.15
2018-09-10T08:43:17.783Z,61.96
2018-09-10T08:44:17.802Z,61.57
2018-09-10T08:45:17.808Z,62.15
2018-09-10T08:46:17.863Z,61.09
2018-09-10T08:47:17.547Z,60.89
2018-09-10T08:48:17.895Z,60.8
2018-09-10T08:49:17.805Z,61.28
2018-09-10T08:50:18.113Z,61.47
2018-09-10T08:51:17.820Z,61.57
2018-09-10T08:52:17.820Z,61.38
2018-09-10T08:53:17.831Z,62.05
2018-09-10T08:54:18.275Z,61.6
2018-09-10T08:55:18.064Z,61.22
2018-09-10T08:56:18.596Z,61.41
2018-09-10T08:57:17.839Z,60.73
2018-09-10T08:58:17.583Z,60.47
2018-09-10T08:59:17.587Z,60.28
2018-09-10T09:00:17.905Z,60.38
2018-09-10T09:01:17.849Z,60.28
2018-09-10T09:02:17.605Z,60.47
2018-09-10T09:03:17.862Z,60.67
2018-09-10T09:04:17.608Z,60.47
2018-09-10T09:05:17.625Z,60.57
2018-09-10T09:06:17.882Z,60.67
2018-09-10T09:07:17.877Z,60.67
2018-09-10T09:08:17.618Z,60.47
2018-09-10T09:09:17.899Z,60.47
2018-09-10T09:10:17.626Z,60.18
2018-09-10T09:11:17.886Z,60.28
2018-09-10T09:12:17.884Z,60.09
2018-09-10T09:13:17.892Z,60.67
2018-09-10T09:14:17.893Z,60.38
2018-09-10T09:15:17.899Z,59.8
2018-09-10T09:16:17.909Z,59.7
2018-09-10T09:17:17.681Z,59.51
2018-09-10T09:18:17.652Z,59.8
2018-09-10T09:19:17.918Z,59.63
2018-09-10T09:20:18.063Z,59.73
2018-09-10T09:21:17.923Z,60.41
2018-09-10T09:22:17.920Z,60.47
2018-09-10T09:23:18.121Z,60.69
2018-09-10T09:24:17.672Z,60.5
2018-09-10T09:25:17.932Z,60.41
2018-09-10T09:26:17.695Z,59.92
2018-09-10T09:27:17.683Z,58.5
2018-09-10T09:28:17.690Z,58.02
2018-09-10T09:29:17.694Z,58.12
2018-09-10T09:30:18.148Z,58.14
2018-09-10T09:31:17.696Z,58.12
2018-09-10T09:32:17.715Z,57.92
2018-09-10T09:33:17.719Z,58.14
2018-09-10T09:34:17.976Z,58.14
2018-09-10T09:35:17.724Z,57.56
2018-09-10T09:36:18.205Z,56.88
2018-09-10T09:37:17.738Z,56.6
2018-09-10T09:38:17.810Z,56.4
2018-09-10T09:39:18.050Z,56.5
2018-09-10T09:40:17.735Z,57.28
2018-09-10T09:41:17.989Z,57.11
2018-09-10T09:42:18.001Z,56.52
2018-09-10T09:43:18.019Z,55.66
2018-09-10T09:44:18.003Z,55.76
2018-09-10T09:45:17.750Z,55.66
2018-09-10T09:46:17.775Z,55.76
2018-09-10T09:47:18.015Z,56.14
2018-09-10T09:48:18.016Z,56.72
2018-09-10T09:49:18.026Z,56.04
2018-09-10T09:50:18.879Z,54.81
2018-09-10T09:51:18.263Z,55
2018-09-10T09:52:18.057Z,55
2018-09-10T09:53:18.043Z,55.1
2018-09-10T09:54:18.053Z,54.23
2018-09-10T09:55:18.053Z,54.62
2018-09-10T09:56:18.046Z,55.22
2018-09-10T09:57:17.797Z,54.45
2018-09-10T09:58:18.059Z,55.22
2018-09-10T09:59:18.062Z,53.41
2018-09-10T10:00:18.066Z,53.29
2018-09-10T10:01:18.074Z,53.12
2018-09-10T10:02:18.080Z,52.64
2018-09-10T10:03:18.077Z,52.06
2018-09-10T10:04:18.450Z,52.64
2018-09-10T10:05:18.092Z,52.64
2018-09-10T10:06:17.838Z,52.25
2018-09-10T10:07:17.851Z,52.64
2018-09-10T10:08:17.857Z,52.93
2018-09-10T10:09:18.121Z,52.15
2018-09-10T10:10:19.102Z,52.73
2018-09-10T10:11:18.354Z,52.25
2018-09-10T10:12:18.513Z,52.25
2018-09-10T10:13:17.868Z,51.57
2018-09-10T10:14:18.129Z,51.21
2018-09-10T10:15:17.878Z,52.66
2018-09-10T10:16:18.307Z,52.18
2018-09-10T10:17:18.144Z,52.76
2018-09-10T10:18:17.889Z,52.47
2018-09-10T10:19:17.906Z,52.37
2018-09-10T10:20:18.174Z,51.59
2018-09-10T10:21:18.158Z,51.59
2018-09-10T10:22:18.206Z,51.21
2018-09-10T10:23:17.926Z,50.82
2018-09-10T10:24:18.181Z,51.69
2018-09-10T10:25:18.195Z,51.33
2018-09-10T10:26:18.182Z,50.74
2018-09-10T10:27:17.937Z,49.87
2018-09-10T10:28:18.288Z,50.07
2018-09-10T10:29:18.202Z,50.26
2018-09-10T10:30:18.281Z,50.07
2018-09-10T10:31:18.207Z,50.16
2018-09-10T10:32:18.218Z,49.9
2018-09-10T10:33:18.227Z,50.19
2018-09-10T10:34:18.248Z,49.9
2018-09-10T10:35:18.242Z,49.9
2018-09-10T10:36:17.974Z,49.02
2018-09-10T10:37:17.982Z,48.64
2018-09-10T10:38:18.248Z,48.35
2018-09-10T10:39:18.409Z,48.54
2018-09-10T10:40:17.998Z,48.93
2018-09-10T10:41:18.277Z,48.64
2018-09-10T10:42:18.008Z,48.35
2018-09-10T10:43:18.270Z,48.05
2018-09-10T10:44:18.014Z,48.44
2018-09-10T10:45:18.276Z,48.93
2018-09-10T10:46:18.290Z,50.87
2018-09-10T10:47:18.057Z,50.68
2018-09-10T10:48:18.037Z,46.41
2018-09-10T10:49:18.307Z,46.11
2018-09-10T10:50:18.046Z,45.65
2018-09-10T10:51:18.321Z,46.31
2018-09-10T10:52:18.057Z,49.15
2018-09-10T10:53:18.317Z,48.57
2018-09-10T10:54:18.338Z,49.63
2018-09-10T10:55:18.329Z,48.37
2018-09-10T10:56:18.081Z,47.4
2018-09-10T10:57:18.080Z,46.81
2018-09-10T10:58:18.339Z,47.59
2018-09-10T10:59:18.382Z,46.62
2018-09-10T11:00:18.357Z,49.73
2018-09-10T11:01:18.356Z,47.86
2018-09-10T11:02:18.366Z,48.64
2018-09-10T11:03:18.366Z,49.41
2018-09-10T11:04:18.561Z,49.9
2018-09-10T11:05:18.394Z,50.68
2018-09-10T11:06:18.125Z,50.19
2018-09-10T11:07:18.389Z,47.38
2018-09-10T11:08:18.141Z,47.28
2018-09-10T11:09:18.141Z,47.18
2018-09-10T11:10:18.403Z,45.94
2018-09-10T11:11:18.409Z,47.38
2018-09-10T11:12:18.413Z,47.38
2018-09-10T11:13:18.162Z,47.01
2018-09-10T11:14:18.434Z,47.59
2018-09-10T11:15:18.425Z,46.52
2018-09-10T11:16:18.435Z,45.87
2018-09-10T11:17:18.435Z,45.65
2018-09-10T11:18:18.443Z,44.99
2018-09-10T11:19:18.460Z,46.45
2018-09-10T11:20:18.216Z,48.39
2018-09-10T11:21:18.475Z,48.58
2018-09-10T11:22:18.522Z,44.99
2018-09-10T11:23:18.213Z,45.48
2018-09-10T11:24:18.476Z,45.87
2018-09-10T11:25:18.225Z,47.15
2018-09-10T11:26:18.478Z,47.25
2018-09-10T11:27:18.234Z,42.19
2018-09-10T11:28:18.231Z,42.78
2018-09-10T11:29:18.521Z,41.8
2018-09-10T11:30:18.508Z,40.93
2018-09-10T11:31:18.248Z,41.22
2018-09-10T11:32:18.505Z,40.34
2018-09-10T11:33:18.509Z,39.2
2018-09-10T11:34:18.528Z,39
2018-09-10T11:35:18.514Z,38.52
2018-09-10T11:36:18.272Z,39.29
2018-09-10T11:37:18.540Z,39.39
2018-09-10T11:38:18.280Z,38.81
2018-09-10T11:39:18.326Z,41.05
2018-09-10T11:40:18.544Z,41.46
2018-09-10T11:41:18.556Z,44.86
2018-09-10T11:42:18.564Z,40.97
2018-09-10T11:43:18.563Z,38.24
2018-09-10T11:44:18.575Z,40.19
2018-09-10T11:45:18.579Z,39.03
2018-09-10T11:46:18.591Z,38.24
2018-09-10T11:47:18.586Z,38.15
2018-09-10T11:48:18.596Z,38.05
2018-09-10T11:49:18.604Z,37.46
2018-09-10T11:50:18.607Z,38.64
2018-09-10T11:51:18.613Z,39.8
2018-09-10T11:52:18.728Z,37.76
2018-09-10T11:53:18.626Z,37.56
2018-09-10T11:54:18.640Z,39.12
2018-09-10T11:55:18.629Z,38.54
2018-09-10T11:56:18.646Z,36.9
2018-09-10T11:57:18.645Z,36.2
2018-09-10T11:58:18.646Z,36.8
2018-09-10T11:59:18.661Z,36
2018-09-10T12:00:18.656Z,36.4
2018-09-10T12:01:18.665Z,36.2
2018-09-10T12:02:18.676Z,36.59
2018-09-10T12:03:18.687Z,36.4
2018-09-10T12:04:18.695Z,35.52
2018-09-10T12:05:18.711Z,35.91
2018-09-10T12:06:18.685Z,35.33
2018-09-10T12:07:18.691Z,35.23
2018-09-10T12:08:18.753Z,34.74
2018-09-10T12:09:18.713Z,35.23
2018-09-10T12:10:18.721Z,43.4
2018-09-10T12:11:18.497Z,45.74
2018-09-10T12:12:18.757Z,40.95
2018-09-10T12:13:18.740Z,38.52
2018-09-10T12:14:18.513Z,36.55
2018-09-10T12:15:18.746Z,37.52
2018-09-10T12:16:18.751Z,36.47
2018-09-10T12:17:18.750Z,37.06
2018-09-10T12:18:18.749Z,36.77
2018-09-10T12:19:18.776Z,39.59
2018-09-10T12:20:18.506Z,37.84
2018-09-10T12:21:18.762Z,37.26
2018-09-10T12:22:18.517Z,38.03
2018-09-10T12:23:18.790Z,41.05
2018-09-10T12:24:18.799Z,38.42
2018-09-10T12:25:18.782Z,36.96
2018-09-10T12:26:18.533Z,37.85
2018-09-10T12:27:18.796Z,38.93
2018-09-10T12:28:18.547Z,38.24
2018-09-10T12:29:18.827Z,41.85
2018-09-10T12:30:18.830Z,40.01
2018-09-10T12:31:18.821Z,36.51
2018-09-10T12:32:18.918Z,34.76
2018-09-10T12:33:18.834Z,33.86
2018-09-10T12:34:18.866Z,33.49
2018-09-10T12:35:18.864Z,33.59
2018-09-10T12:36:18.869Z,33.59
2018-09-10T12:37:18.867Z,33.11
2018-09-10T12:38:18.865Z,34.08
2018-09-10T12:39:18.949Z,33.29
2018-09-10T12:40:18.885Z,33.39
2018-09-10T12:41:18.884Z,33.29
2018-09-10T12:42:18.624Z,33.39
2018-09-10T12:43:18.889Z,33.29
2018-09-10T12:44:18.907Z,32.23
2018-09-10T12:45:18.913Z,32.91
2018-09-10T12:46:18.935Z,32.42
2018-09-10T12:47:18.918Z,32.32
2018-09-10T12:48:18.657Z,32.32
2018-09-10T12:49:18.683Z,32.13
2018-09-10T12:50:18.665Z,32.13
2018-09-10T12:51:18.936Z,32.05
2018-09-10T12:52:18.943Z,31.46
2018-09-10T12:53:18.682Z,31.07
2018-09-10T12:54:18.978Z,30.88